sensor_id;sensor_type;location;lat;lon;timestamp;P1;durP1;ratioP1;P2;durP2;ratioP2
23155;SDS011;11746;50.876;4.246;2023-08-21T00:00:19;6.03;;;1.27;;
23155;SDS011;11746;50.876;4.246;2023-08-21T00:02:44;6.78;;;1.60;;
23155;SDS011;11746;50.876;4.246;2023-08-21T00:05:10;6.18;;;1.45;;
23155;SDS011;11746;50.876;4.246;2023-08-21T00:07:38;6.47;;;1.55;;
23155;SDS011;11746;50.876;4.246;2023-08-21T00:10:04;5.88;;;1.35;;
23155;SDS011;11746;50.876;4.246;2023-08-21T00:12:30;6.50;;;1.35;;
23155;SDS011;11746;50.876;4.246;2023-08-21T00:14:57;5.90;;;1.65;;
23155;SDS011;11746;50.876;4.246;2023-08-21T00:17:22;7.30;;;1.40;;
23155;SDS011;11746;50.876;4.246;2023-08-21T00:19:49;6.28;;;1.60;;
23155;SDS011;11746;50.876;4.246;2023-08-21T00:22:14;5.53;;;1.20;;
23155;SDS011;11746;50.876;4.246;2023-08-21T00:24:40;9.00;;;1.48;;
23155;SDS011;11746;50.876;4.246;2023-08-21T00:27:06;5.25;;;1.42;;
23155;SDS011;11746;50.876;4.246;2023-08-21T00:29:35;7.95;;;1.42;;
23155;SDS011;11746;50.876;4.246;2023-08-21T00:32:01;6.03;;;1.30;;
23155;SDS011;11746;50.876;4.246;2023-08-21T00:34:27;7.35;;;1.50;;
23155;SDS011;11746;50.876;4.246;2023-08-21T00:36:52;5.00;;;1.17;;
23155;SDS011;11746;50.876;4.246;2023-08-21T00:39:22;5.72;;;1.38;;
23155;SDS011;11746;50.876;4.246;2023-08-21T00:41:48;4.20;;;1.30;;
23155;SDS011;11746;50.876;4.246;2023-08-21T00:44:18;6.93;;;1.55;;
23155;SDS011;11746;50.876;4.246;2023-08-21T00:46:47;5.47;;;1.40;;
23155;SDS011;11746;50.876;4.246;2023-08-21T00:49:15;5.57;;;1.35;;
23155;SDS011;11746;50.876;4.246;2023-08-21T00:51:41;5.72;;;1.63;;
23155;SDS011;11746;50.876;4.246;2023-08-21T00:54:07;4.10;;;1.38;;
23155;SDS011;11746;50.876;4.246;2023-08-21T00:56:33;6.20;;;1.58;;
23155;SDS011;11746;50.876;4.246;2023-08-21T00:58:59;5.50;;;1.23;;
23155;SDS011;11746;50.876;4.246;2023-08-21T01:01:27;4.20;;;1.42;;
23155;SDS011;11746;50.876;4.246;2023-08-21T01:03:54;6.97;;;1.38;;
23155;SDS011;11746;50.876;4.246;2023-08-21T01:06:20;7.45;;;1.60;;
23155;SDS011;11746;50.876;4.246;2023-08-21T01:08:48;6.22;;;1.58;;
23155;SDS011;11746;50.876;4.246;2023-08-21T01:11:26;8.65;;;1.73;;
23155;SDS011;11746;50.876;4.246;2023-08-21T01:16:55;8.35;;;1.73;;
23155;SDS011;11746;50.876;4.246;2023-08-21T01:21:59;7.57;;;1.52;;
23155;SDS011;11746;50.876;4.246;2023-08-21T01:24:25;5.90;;;1.40;;
23155;SDS011;11746;50.876;4.246;2023-08-21T01:26:51;4.75;;;1.30;;
23155;SDS011;11746;50.876;4.246;2023-08-21T01:29:16;4.75;;;1.45;;
23155;SDS011;11746;50.876;4.246;2023-08-21T01:31:43;4.60;;;1.38;;
23155;SDS011;11746;50.876;4.246;2023-08-21T01:34:15;4.30;;;1.50;;
23155;SDS011;11746;50.876;4.246;2023-08-21T01:36:44;8.13;;;1.70;;
23155;SDS011;11746;50.876;4.246;2023-08-21T01:39:18;6.18;;;1.52;;
23155;SDS011;11746;50.876;4.246;2023-08-21T01:41:44;8.25;;;1.55;;
23155;SDS011;11746;50.876;4.246;2023-08-21T01:44:12;8.30;;;1.80;;
23155;SDS011;11746;50.876;4.246;2023-08-21T01:46:37;7.45;;;1.67;;
23155;SDS011;11746;50.876;4.246;2023-08-21T01:49:03;6.05;;;1.45;;
23155;SDS011;11746;50.876;4.246;2023-08-21T01:51:28;5.78;;;1.40;;
23155;SDS011;11746;50.876;4.246;2023-08-21T01:53:54;5.97;;;1.33;;
23155;SDS011;11746;50.876;4.246;2023-08-21T01:56:19;7.32;;;1.48;;
23155;SDS011;11746;50.876;4.246;2023-08-21T01:58:48;5.75;;;1.92;;
23155;SDS011;11746;50.876;4.246;2023-08-21T02:01:13;6.15;;;1.70;;
23155;SDS011;11746;50.876;4.246;2023-08-21T02:03:44;5.22;;;1.70;;
23155;SDS011;11746;50.876;4.246;2023-08-21T02:06:12;8.10;;;2.03;;
23155;SDS011;11746;50.876;4.246;2023-08-21T02:08:38;6.32;;;1.67;;
23155;SDS011;11746;50.876;4.246;2023-08-21T02:11:03;8.18;;;1.70;;
23155;SDS011;11746;50.876;4.246;2023-08-21T02:13:29;6.22;;;1.75;;
23155;SDS011;11746;50.876;4.246;2023-08-21T02:15:55;7.03;;;1.63;;
23155;SDS011;11746;50.876;4.246;2023-08-21T02:18:20;6.65;;;1.63;;
23155;SDS011;11746;50.876;4.246;2023-08-21T02:20:49;6.55;;;1.73;;
23155;SDS011;11746;50.876;4.246;2023-08-21T02:23:15;6.43;;;1.70;;
23155;SDS011;11746;50.876;4.246;2023-08-21T02:25:41;6.13;;;1.38;;
23155;SDS011;11746;50.876;4.246;2023-08-21T02:28:07;5.55;;;1.60;;
23155;SDS011;11746;50.876;4.246;2023-08-21T02:30:33;5.68;;;1.65;;
23155;SDS011;11746;50.876;4.246;2023-08-21T02:33:01;6.13;;;1.52;;
23155;SDS011;11746;50.876;4.246;2023-08-21T02:35:28;8.07;;;1.73;;
23155;SDS011;11746;50.876;4.246;2023-08-21T02:37:54;4.85;;;1.42;;
23155;SDS011;11746;50.876;4.246;2023-08-21T02:40:19;5.95;;;1.65;;
23155;SDS011;11746;50.876;4.246;2023-08-21T02:42:45;9.13;;;2.10;;
23155;SDS011;11746;50.876;4.246;2023-08-21T02:45:13;5.97;;;1.58;;
23155;SDS011;11746;50.876;4.246;2023-08-21T02:47:41;7.03;;;1.70;;
23155;SDS011;11746;50.876;4.246;2023-08-21T02:50:10;7.35;;;1.55;;
23155;SDS011;11746;50.876;4.246;2023-08-21T02:52:36;10.38;;;2.05;;
23155;SDS011;11746;50.876;4.246;2023-08-21T02:55:02;8.57;;;1.60;;
23155;SDS011;11746;50.876;4.246;2023-08-21T02:57:29;5.65;;;1.55;;
23155;SDS011;11746;50.876;4.246;2023-08-21T02:59:54;7.15;;;1.60;;
23155;SDS011;11746;50.876;4.246;2023-08-21T03:02:22;7.47;;;1.90;;
23155;SDS011;11746;50.876;4.246;2023-08-21T03:04:48;4.57;;;1.58;;
23155;SDS011;11746;50.876;4.246;2023-08-21T03:07:15;6.00;;;1.45;;
23155;SDS011;11746;50.876;4.246;2023-08-21T03:09:44;8.57;;;1.65;;
23155;SDS011;11746;50.876;4.246;2023-08-21T03:12:13;3.83;;;1.38;;
23155;SDS011;11746;50.876;4.246;2023-08-21T03:14:41;7.72;;;1.70;;
23155;SDS011;11746;50.876;4.246;2023-08-21T03:17:07;5.75;;;1.80;;
23155;SDS011;11746;50.876;4.246;2023-08-21T03:19:35;5.32;;;1.85;;
23155;SDS011;11746;50.876;4.246;2023-08-21T03:22:01;8.05;;;1.77;;
23155;SDS011;11746;50.876;4.246;2023-08-21T03:24:27;4.35;;;1.60;;
23155;SDS011;11746;50.876;4.246;2023-08-21T03:26:54;4.97;;;1.50;;
23155;SDS011;11746;50.876;4.246;2023-08-21T03:29:22;6.45;;;1.50;;
23155;SDS011;11746;50.876;4.246;2023-08-21T03:31:52;6.20;;;1.50;;
23155;SDS011;11746;50.876;4.246;2023-08-21T03:34:20;7.85;;;1.70;;
23155;SDS011;11746;50.876;4.246;2023-08-21T03:36:50;6.68;;;2.08;;
23155;SDS011;11746;50.876;4.246;2023-08-21T03:39:16;7.65;;;1.50;;
23155;SDS011;11746;50.876;4.246;2023-08-21T03:41:42;7.53;;;1.60;;
23155;SDS011;11746;50.876;4.246;2023-08-21T03:44:08;7.30;;;1.60;;
23155;SDS011;11746;50.876;4.246;2023-08-21T03:46:36;5.85;;;1.60;;
23155;SDS011;11746;50.876;4.246;2023-08-21T03:49:01;7.70;;;1.75;;
23155;SDS011;11746;50.876;4.246;2023-08-21T03:51:29;4.85;;;1.58;;
23155;SDS011;11746;50.876;4.246;2023-08-21T03:53:57;6.40;;;1.52;;
23155;SDS011;11746;50.876;4.246;2023-08-21T03:56:22;5.97;;;1.73;;
23155;SDS011;11746;50.876;4.246;2023-08-21T03:58:48;8.45;;;2.42;;
23155;SDS011;11746;50.876;4.246;2023-08-21T04:01:14;5.72;;;1.90;;
23155;SDS011;11746;50.876;4.246;2023-08-21T04:03:40;7.68;;;1.80;;
23155;SDS011;11746;50.876;4.246;2023-08-21T04:06:07;24.83;;;3.08;;
23155;SDS011;11746;50.876;4.246;2023-08-21T04:08:33;13.60;;;2.42;;
23155;SDS011;11746;50.876;4.246;2023-08-21T04:10:59;17.73;;;2.90;;
23155;SDS011;11746;50.876;4.246;2023-08-21T04:13:26;11.40;;;1.88;;
23155;SDS011;11746;50.876;4.246;2023-08-21T04:15:53;7.50;;;2.40;;
23155;SDS011;11746;50.876;4.246;2023-08-21T04:18:19;6.97;;;2.08;;
23155;SDS011;11746;50.876;4.246;2023-08-21T04:20:44;71.57;;;6.18;;
23155;SDS011;11746;50.876;4.246;2023-08-21T04:23:13;6.90;;;2.08;;
23155;SDS011;11746;50.876;4.246;2023-08-21T04:25:38;5.82;;;2.03;;
23155;SDS011;11746;50.876;4.246;2023-08-21T04:28:04;13.95;;;3.00;;
23155;SDS011;11746;50.876;4.246;2023-08-21T04:30:31;8.23;;;2.20;;
23155;SDS011;11746;50.876;4.246;2023-08-21T04:32:56;8.25;;;2.40;;
23155;SDS011;11746;50.876;4.246;2023-08-21T04:35:22;6.97;;;1.90;;
23155;SDS011;11746;50.876;4.246;2023-08-21T04:37:50;10.80;;;2.50;;
23155;SDS011;11746;50.876;4.246;2023-08-21T04:40:18;11.80;;;2.38;;
23155;SDS011;11746;50.876;4.246;2023-08-21T04:42:48;8.60;;;2.70;;
23155;SDS011;11746;50.876;4.246;2023-08-21T04:45:13;10.60;;;2.42;;
23155;SDS011;11746;50.876;4.246;2023-08-21T04:47:39;7.70;;;2.22;;
23155;SDS011;11746;50.876;4.246;2023-08-21T04:50:05;11.13;;;2.22;;
23155;SDS011;11746;50.876;4.246;2023-08-21T04:52:35;5.97;;;1.95;;
23155;SDS011;11746;50.876;4.246;2023-08-21T04:55:01;7.82;;;2.10;;
23155;SDS011;11746;50.876;4.246;2023-08-21T04:57:26;22.17;;;2.70;;
23155;SDS011;11746;50.876;4.246;2023-08-21T04:59:52;9.23;;;1.90;;
23155;SDS011;11746;50.876;4.246;2023-08-21T05:02:22;10.63;;;2.60;;
23155;SDS011;11746;50.876;4.246;2023-08-21T05:04:50;5.22;;;1.73;;
23155;SDS011;11746;50.876;4.246;2023-08-21T05:07:16;7.22;;;2.10;;
23155;SDS011;11746;50.876;4.246;2023-08-21T05:09:41;6.07;;;2.03;;
23155;SDS011;11746;50.876;4.246;2023-08-21T05:12:11;7.18;;;1.77;;
23155;SDS011;11746;50.876;4.246;2023-08-21T05:14:37;7.90;;;1.98;;
23155;SDS011;11746;50.876;4.246;2023-08-21T05:17:03;5.13;;;1.98;;
23155;SDS011;11746;50.876;4.246;2023-08-21T05:19:31;9.15;;;2.10;;
23155;SDS011;11746;50.876;4.246;2023-08-21T05:21:56;7.47;;;2.05;;
23155;SDS011;11746;50.876;4.246;2023-08-21T05:24:24;9.70;;;2.35;;
23155;SDS011;11746;50.876;4.246;2023-08-21T05:26:50;7.53;;;2.17;;
23155;SDS011;11746;50.876;4.246;2023-08-21T05:29:18;7.18;;;2.13;;
23155;SDS011;11746;50.876;4.246;2023-08-21T05:31:43;7.47;;;2.40;;
23155;SDS011;11746;50.876;4.246;2023-08-21T05:34:11;9.48;;;2.47;;
23155;SDS011;11746;50.876;4.246;2023-08-21T05:36:37;7.55;;;1.95;;
23155;SDS011;11746;50.876;4.246;2023-08-21T05:39:02;8.63;;;2.10;;
23155;SDS011;11746;50.876;4.246;2023-08-21T05:41:30;6.82;;;2.45;;
23155;SDS011;11746;50.876;4.246;2023-08-21T05:44:00;9.05;;;2.60;;
23155;SDS011;11746;50.876;4.246;2023-08-21T05:46:25;11.57;;;2.70;;
23155;SDS011;11746;50.876;4.246;2023-08-21T05:48:51;7.18;;;2.80;;
23155;SDS011;11746;50.876;4.246;2023-08-21T05:51:17;15.82;;;3.20;;
23155;SDS011;11746;50.876;4.246;2023-08-21T05:53:42;6.97;;;2.40;;
23155;SDS011;11746;50.876;4.246;2023-08-21T05:56:08;9.50;;;2.20;;
23155;SDS011;11746;50.876;4.246;2023-08-21T05:58:34;12.10;;;2.50;;
23155;SDS011;11746;50.876;4.246;2023-08-21T06:00:59;7.97;;;2.25;;
23155;SDS011;11746;50.876;4.246;2023-08-21T06:03:25;6.53;;;2.40;;
23155;SDS011;11746;50.876;4.246;2023-08-21T06:05:50;7.55;;;2.22;;
23155;SDS011;11746;50.876;4.246;2023-08-21T06:08:18;7.50;;;2.42;;
23155;SDS011;11746;50.876;4.246;2023-08-21T06:10:46;6.95;;;2.10;;
23155;SDS011;11746;50.876;4.246;2023-08-21T06:13:16;8.70;;;2.90;;
23155;SDS011;11746;50.876;4.246;2023-08-21T06:15:43;10.27;;;2.75;;
23155;SDS011;11746;50.876;4.246;2023-08-21T06:18:10;8.05;;;3.10;;
23155;SDS011;11746;50.876;4.246;2023-08-21T06:20:38;6.05;;;2.80;;
23155;SDS011;11746;50.876;4.246;2023-08-21T06:23:04;9.55;;;3.13;;
23155;SDS011;11746;50.876;4.246;2023-08-21T06:25:32;8.25;;;2.90;;
23155;SDS011;11746;50.876;4.246;2023-08-21T06:27:58;7.60;;;2.80;;
23155;SDS011;11746;50.876;4.246;2023-08-21T06:30:28;15.55;;;3.90;;
23155;SDS011;11746;50.876;4.246;2023-08-21T06:32:54;7.43;;;3.13;;
23155;SDS011;11746;50.876;4.246;2023-08-21T06:35:20;10.85;;;3.90;;
23155;SDS011;11746;50.876;4.246;2023-08-21T06:37:46;10.68;;;3.67;;
23155;SDS011;11746;50.876;4.246;2023-08-21T06:40:17;11.52;;;3.35;;
23155;SDS011;11746;50.876;4.246;2023-08-21T06:42:42;17.05;;;3.88;;
23155;SDS011;11746;50.876;4.246;2023-08-21T06:45:08;12.45;;;3.70;;
23155;SDS011;11746;50.876;4.246;2023-08-21T06:47:36;12.15;;;3.50;;
23155;SDS011;11746;50.876;4.246;2023-08-21T06:50:02;8.88;;;3.70;;
23155;SDS011;11746;50.876;4.246;2023-08-21T06:52:30;14.80;;;4.20;;
23155;SDS011;11746;50.876;4.246;2023-08-21T06:54:55;12.35;;;4.40;;
23155;SDS011;11746;50.876;4.246;2023-08-21T06:57:21;13.45;;;4.50;;
23155;SDS011;11746;50.876;4.246;2023-08-21T06:59:47;10.05;;;3.53;;
23155;SDS011;11746;50.876;4.246;2023-08-21T07:02:12;17.95;;;3.90;;
23155;SDS011;11746;50.876;4.246;2023-08-21T07:04:38;12.90;;;3.70;;
23155;SDS011;11746;50.876;4.246;2023-08-21T07:07:04;13.43;;;4.20;;
23155;SDS011;11746;50.876;4.246;2023-08-21T07:09:29;12.90;;;4.32;;
23155;SDS011;11746;50.876;4.246;2023-08-21T07:11:57;13.80;;;3.92;;
23155;SDS011;11746;50.876;4.246;2023-08-21T07:14:23;14.80;;;4.28;;
23155;SDS011;11746;50.876;4.246;2023-08-21T07:16:48;13.32;;;4.25;;
23155;SDS011;11746;50.876;4.246;2023-08-21T07:19:14;22.30;;;5.03;;
23155;SDS011;11746;50.876;4.246;2023-08-21T07:21:39;11.27;;;4.28;;
23155;SDS011;11746;50.876;4.246;2023-08-21T07:24:05;15.60;;;4.15;;
23155;SDS011;11746;50.876;4.246;2023-08-21T07:26:31;13.80;;;5.10;;
23155;SDS011;11746;50.876;4.246;2023-08-21T07:28:57;12.63;;;4.00;;
23155;SDS011;11746;50.876;4.246;2023-08-21T07:31:25;11.15;;;4.35;;
23155;SDS011;11746;50.876;4.246;2023-08-21T07:33:53;9.70;;;3.65;;
23155;SDS011;11746;50.876;4.246;2023-08-21T07:36:19;12.60;;;4.05;;
23155;SDS011;11746;50.876;4.246;2023-08-21T07:38:44;9.85;;;4.18;;
23155;SDS011;11746;50.876;4.246;2023-08-21T07:41:10;11.10;;;4.13;;
23155;SDS011;11746;50.876;4.246;2023-08-21T07:43:41;11.68;;;4.40;;
23155;SDS011;11746;50.876;4.246;2023-08-21T07:46:11;20.38;;;5.20;;
23155;SDS011;11746;50.876;4.246;2023-08-21T07:48:41;15.27;;;6.20;;
23155;SDS011;11746;50.876;4.246;2023-08-21T07:51:10;13.40;;;4.90;;
23155;SDS011;11746;50.876;4.246;2023-08-21T07:53:36;16.15;;;5.18;;
23155;SDS011;11746;50.876;4.246;2023-08-21T07:56:02;13.65;;;5.60;;
23155;SDS011;11746;50.876;4.246;2023-08-21T07:58:31;47.08;;;7.22;;
23155;SDS011;11746;50.876;4.246;2023-08-21T08:00:58;13.38;;;5.95;;
23155;SDS011;11746;50.876;4.246;2023-08-21T08:03:26;17.40;;;6.35;;
23155;SDS011;11746;50.876;4.246;2023-08-21T08:05:57;18.75;;;6.05;;
23155;SDS011;11746;50.876;4.246;2023-08-21T08:08:23;18.92;;;7.13;;
23155;SDS011;11746;50.876;4.246;2023-08-21T08:10:50;21.13;;;6.72;;
23155;SDS011;11746;50.876;4.246;2023-08-21T08:13:19;16.52;;;7.40;;
23155;SDS011;11746;50.876;4.246;2023-08-21T08:15:46;18.23;;;7.43;;
23155;SDS011;11746;50.876;4.246;2023-08-21T08:18:12;16.98;;;7.30;;
23155;SDS011;11746;50.876;4.246;2023-08-21T08:20:38;13.52;;;5.20;;
23155;SDS011;11746;50.876;4.246;2023-08-21T08:23:04;15.98;;;5.40;;
23155;SDS011;11746;50.876;4.246;2023-08-21T08:25:30;16.48;;;5.95;;
23155;SDS011;11746;50.876;4.246;2023-08-21T08:27:56;21.92;;;6.47;;
23155;SDS011;11746;50.876;4.246;2023-08-21T08:30:21;28.55;;;6.15;;
23155;SDS011;11746;50.876;4.246;2023-08-21T08:32:49;18.77;;;9.05;;
23155;SDS011;11746;50.876;4.246;2023-08-21T08:35:14;20.25;;;8.98;;
23155;SDS011;11746;50.876;4.246;2023-08-21T08:37:40;23.38;;;10.07;;
23155;SDS011;11746;50.876;4.246;2023-08-21T08:40:07;13.88;;;6.88;;
23155;SDS011;11746;50.876;4.246;2023-08-21T08:42:35;13.43;;;4.60;;
23155;SDS011;11746;50.876;4.246;2023-08-21T08:45:02;15.82;;;5.68;;
23155;SDS011;11746;50.876;4.246;2023-08-21T08:47:32;18.05;;;5.43;;
23155;SDS011;11746;50.876;4.246;2023-08-21T08:50:04;15.15;;;5.20;;
23155;SDS011;11746;50.876;4.246;2023-08-21T08:52:34;18.17;;;5.15;;
23155;SDS011;11746;50.876;4.246;2023-08-21T08:55:03;15.77;;;4.75;;
23155;SDS011;11746;50.876;4.246;2023-08-21T08:57:31;117.30;;;10.98;;
23155;SDS011;11746;50.876;4.246;2023-08-21T08:59:57;13.10;;;4.10;;
23155;SDS011;11746;50.876;4.246;2023-08-21T09:02:24;13.73;;;3.70;;
23155;SDS011;11746;50.876;4.246;2023-08-21T09:04:53;12.13;;;3.90;;
23155;SDS011;11746;50.876;4.246;2023-08-21T09:07:19;15.57;;;4.30;;
23155;SDS011;11746;50.876;4.246;2023-08-21T09:09:48;11.90;;;3.45;;
23155;SDS011;11746;50.876;4.246;2023-08-21T09:12:18;9.15;;;3.33;;
23155;SDS011;11746;50.876;4.246;2023-08-21T09:14:44;11.80;;;2.70;;
23155;SDS011;11746;50.876;4.246;2023-08-21T09:17:13;9.45;;;3.20;;
23155;SDS011;11746;50.876;4.246;2023-08-21T09:19:39;12.80;;;3.40;;
23155;SDS011;11746;50.876;4.246;2023-08-21T09:22:12;11.68;;;2.75;;
23155;SDS011;11746;50.876;4.246;2023-08-21T09:25:00;9.40;;;2.03;;
23155;SDS011;11746;50.876;4.246;2023-08-21T09:27:31;9.30;;;2.15;;
23155;SDS011;11746;50.876;4.246;2023-08-21T09:30:03;8.40;;;1.98;;
23155;SDS011;11746;50.876;4.246;2023-08-21T09:32:29;8.15;;;2.30;;
23155;SDS011;11746;50.876;4.246;2023-08-21T09:34:55;9.90;;;1.80;;
23155;SDS011;11746;50.876;4.246;2023-08-21T09:37:21;6.15;;;1.40;;
23155;SDS011;11746;50.876;4.246;2023-08-21T09:39:56;5.77;;;1.73;;
23155;SDS011;11746;50.876;4.246;2023-08-21T09:42:30;6.82;;;1.83;;
23155;SDS011;11746;50.876;4.246;2023-08-21T09:44:58;10.55;;;2.30;;
23155;SDS011;11746;50.876;4.246;2023-08-21T09:47:29;8.35;;;1.60;;
23155;SDS011;11746;50.876;4.246;2023-08-21T09:49:58;5.60;;;1.33;;
23155;SDS011;11746;50.876;4.246;2023-08-21T09:52:26;4.53;;;1.42;;
23155;SDS011;11746;50.876;4.246;2023-08-21T09:54:54;7.55;;;1.90;;
23155;SDS011;11746;50.876;4.246;2023-08-21T09:57:21;6.80;;;2.30;;
23155;SDS011;11746;50.876;4.246;2023-08-21T09:59:54;4.90;;;1.58;;
23155;SDS011;11746;50.876;4.246;2023-08-21T10:02:22;5.95;;;1.98;;
23155;SDS011;11746;50.876;4.246;2023-08-21T10:04:49;7.55;;;1.83;;
23155;SDS011;11746;50.876;4.246;2023-08-21T10:07:17;5.25;;;1.48;;
23155;SDS011;11746;50.876;4.246;2023-08-21T10:09:47;6.75;;;2.00;;
23155;SDS011;11746;50.876;4.246;2023-08-21T10:12:16;6.65;;;1.30;;
23155;SDS011;11746;50.876;4.246;2023-08-21T10:14:43;6.03;;;1.88;;
23155;SDS011;11746;50.876;4.246;2023-08-21T10:17:11;7.43;;;1.45;;
23155;SDS011;11746;50.876;4.246;2023-08-21T10:19:40;6.38;;;1.85;;
23155;SDS011;11746;50.876;4.246;2023-08-21T10:22:05;8.98;;;1.50;;
23155;SDS011;11746;50.876;4.246;2023-08-21T10:24:35;5.45;;;1.52;;
23155;SDS011;11746;50.876;4.246;2023-08-21T10:27:05;4.10;;;1.17;;
23155;SDS011;11746;50.876;4.246;2023-08-21T10:29:32;2.72;;;1.00;;
23155;SDS011;11746;50.876;4.246;2023-08-21T10:31:59;4.82;;;1.00;;
23155;SDS011;11746;50.876;4.246;2023-08-21T10:34:34;2.25;;;0.60;;
23155;SDS011;11746;50.876;4.246;2023-08-21T10:44:49;3.28;;;0.90;;
23155;SDS011;11746;50.876;4.246;2023-08-21T10:49:58;3.03;;;0.88;;
23155;SDS011;11746;50.876;4.246;2023-08-21T10:54:58;2.65;;;0.85;;
23155;SDS011;11746;50.876;4.246;2023-08-21T10:57:25;3.83;;;1.27;;
23155;SDS011;11746;50.876;4.246;2023-08-21T11:02:46;3.75;;;0.70;;
23155;SDS011;11746;50.876;4.246;2023-08-21T11:05:15;2.90;;;0.82;;
23155;SDS011;11746;50.876;4.246;2023-08-21T11:07:44;6.05;;;1.30;;
23155;SDS011;11746;50.876;4.246;2023-08-21T11:10:16;5.35;;;1.50;;
23155;SDS011;11746;50.876;4.246;2023-08-21T11:15:21;7.68;;;1.55;;
23155;SDS011;11746;50.876;4.246;2023-08-21T11:17:51;4.43;;;1.42;;
23155;SDS011;11746;50.876;4.246;2023-08-21T11:20:18;3.95;;;1.15;;
23155;SDS011;11746;50.876;4.246;2023-08-21T11:22:44;3.65;;;1.05;;
23155;SDS011;11746;50.876;4.246;2023-08-21T11:25:12;4.97;;;1.45;;
23155;SDS011;11746;50.876;4.246;2023-08-21T11:27:42;3.40;;;1.20;;
23155;SDS011;11746;50.876;4.246;2023-08-21T11:30:10;16.48;;;2.10;;
23155;SDS011;11746;50.876;4.246;2023-08-21T11:32:36;8.25;;;1.35;;
23155;SDS011;11746;50.876;4.246;2023-08-21T11:35:02;6.75;;;1.63;;
23155;SDS011;11746;50.876;4.246;2023-08-21T11:37:28;3.72;;;1.38;;
23155;SDS011;11746;50.876;4.246;2023-08-21T11:39:55;5.88;;;1.52;;
23155;SDS011;11746;50.876;4.246;2023-08-21T11:42:29;9.52;;;1.75;;
23155;SDS011;11746;50.876;4.246;2023-08-21T11:44:58;4.20;;;1.40;;
23155;SDS011;11746;50.876;4.246;2023-08-21T11:47:33;4.20;;;1.27;;
23155;SDS011;11746;50.876;4.246;2023-08-21T11:50:03;4.32;;;1.48;;
23155;SDS011;11746;50.876;4.246;2023-08-21T11:52:33;10.70;;;2.15;;
23155;SDS011;11746;50.876;4.246;2023-08-21T11:55:06;5.88;;;1.63;;
23155;SDS011;11746;50.876;4.246;2023-08-21T11:57:35;5.90;;;1.70;;
23155;SDS011;11746;50.876;4.246;2023-08-21T12:00:17;3.97;;;1.20;;
23155;SDS011;11746;50.876;4.246;2023-08-21T12:02:53;3.72;;;1.45;;
23155;SDS011;11746;50.876;4.246;2023-08-21T12:05:31;31.52;;;3.45;;
23155;SDS011;11746;50.876;4.246;2023-08-21T12:07:58;11.85;;;1.80;;
23155;SDS011;11746;50.876;4.246;2023-08-21T12:10:26;20.38;;;3.67;;
23155;SDS011;11746;50.876;4.246;2023-08-21T12:12:53;19.23;;;2.50;;
23155;SDS011;11746;50.876;4.246;2023-08-21T12:15:22;11.00;;;1.55;;
23155;SDS011;11746;50.876;4.246;2023-08-21T12:17:50;3.42;;;1.63;;
23155;SDS011;11746;50.876;4.246;2023-08-21T12:20:16;3.65;;;1.55;;
23155;SDS011;11746;50.876;4.246;2023-08-21T12:22:41;11.77;;;1.70;;
23155;SDS011;11746;50.876;4.246;2023-08-21T12:25:10;3.13;;;1.20;;
23155;SDS011;11746;50.876;4.246;2023-08-21T12:27:36;7.03;;;2.42;;
23155;SDS011;11746;50.876;4.246;2023-08-21T12:30:02;5.82;;;1.88;;
23155;SDS011;11746;50.876;4.246;2023-08-21T12:32:28;4.55;;;1.30;;
23155;SDS011;11746;50.876;4.246;2023-08-21T12:34:56;3.42;;;1.50;;
23155;SDS011;11746;50.876;4.246;2023-08-21T12:37:24;2.97;;;1.65;;
23155;SDS011;11746;50.876;4.246;2023-08-21T12:39:55;11.95;;;2.05;;
23155;SDS011;11746;50.876;4.246;2023-08-21T12:42:23;4.22;;;1.48;;
23155;SDS011;11746;50.876;4.246;2023-08-21T12:44:51;6.30;;;1.40;;
23155;SDS011;11746;50.876;4.246;2023-08-21T12:47:19;6.50;;;1.60;;
23155;SDS011;11746;50.876;4.246;2023-08-21T12:49:44;4.78;;;1.08;;
23155;SDS011;11746;50.876;4.246;2023-08-21T12:52:10;2.45;;;1.00;;
23155;SDS011;11746;50.876;4.246;2023-08-21T12:54:38;2.88;;;1.30;;
23155;SDS011;11746;50.876;4.246;2023-08-21T12:57:04;3.22;;;1.42;;
23155;SDS011;11746;50.876;4.246;2023-08-21T12:59:33;2.17;;;0.98;;
23155;SDS011;11746;50.876;4.246;2023-08-21T13:02:03;3.33;;;1.17;;
23155;SDS011;11746;50.876;4.246;2023-08-21T13:04:29;3.60;;;1.10;;
23155;SDS011;11746;50.876;4.246;2023-08-21T13:06:55;3.35;;;1.00;;
23155;SDS011;11746;50.876;4.246;2023-08-21T13:09:21;2.10;;;0.90;;
23155;SDS011;11746;50.876;4.246;2023-08-21T13:11:48;2.15;;;1.00;;
23155;SDS011;11746;50.876;4.246;2023-08-21T13:14:14;3.13;;;0.90;;
23155;SDS011;11746;50.876;4.246;2023-08-21T13:16:40;2.78;;;0.70;;
23155;SDS011;11746;50.876;4.246;2023-08-21T13:19:05;2.47;;;0.90;;
23155;SDS011;11746;50.876;4.246;2023-08-21T13:21:31;3.17;;;0.80;;
23155;SDS011;11746;50.876;4.246;2023-08-21T13:23:59;2.10;;;0.60;;
23155;SDS011;11746;50.876;4.246;2023-08-21T13:26:24;1.33;;;0.50;;
23155;SDS011;11746;50.876;4.246;2023-08-21T13:28:50;2.20;;;0.95;;
23155;SDS011;11746;50.876;4.246;2023-08-21T13:31:16;3.35;;;0.95;;
23155;SDS011;11746;50.876;4.246;2023-08-21T13:33:45;1.77;;;0.63;;
23155;SDS011;11746;50.876;4.246;2023-08-21T13:36:19;1.40;;;0.70;;
23155;SDS011;11746;50.876;4.246;2023-08-21T13:38:45;1.80;;;0.65;;
23155;SDS011;11746;50.876;4.246;2023-08-21T13:41:11;1.92;;;0.68;;
23155;SDS011;11746;50.876;4.246;2023-08-21T13:43:37;2.28;;;0.70;;
23155;SDS011;11746;50.876;4.246;2023-08-21T13:46:03;4.28;;;0.88;;
23155;SDS011;11746;50.876;4.246;2023-08-21T13:48:29;1.40;;;0.73;;
23155;SDS011;11746;50.876;4.246;2023-08-21T13:50:55;2.97;;;0.98;;
23155;SDS011;11746;50.876;4.246;2023-08-21T13:53:21;3.58;;;0.80;;
23155;SDS011;11746;50.876;4.246;2023-08-21T13:55:47;4.10;;;0.80;;
23155;SDS011;11746;50.876;4.246;2023-08-21T13:58:14;4.97;;;0.85;;
23155;SDS011;11746;50.876;4.246;2023-08-21T14:00:40;4.60;;;1.10;;
23155;SDS011;11746;50.876;4.246;2023-08-21T14:03:05;1.35;;;0.70;;
23155;SDS011;11746;50.876;4.246;2023-08-21T14:05:31;2.60;;;0.75;;
23155;SDS011;11746;50.876;4.246;2023-08-21T14:08:01;2.72;;;0.80;;
23155;SDS011;11746;50.876;4.246;2023-08-21T14:10:26;4.25;;;0.70;;
23155;SDS011;11746;50.876;4.246;2023-08-21T14:12:52;2.35;;;0.70;;
23155;SDS011;11746;50.876;4.246;2023-08-21T14:15:21;2.38;;;0.50;;
23155;SDS011;11746;50.876;4.246;2023-08-21T14:17:47;2.53;;;0.60;;
23155;SDS011;11746;50.876;4.246;2023-08-21T14:20:14;3.65;;;0.95;;
23155;SDS011;11746;50.876;4.246;2023-08-21T14:22:40;2.75;;;0.73;;
23155;SDS011;11746;50.876;4.246;2023-08-21T14:25:06;1.73;;;0.52;;
23155;SDS011;11746;50.876;4.246;2023-08-21T14:27:34;1.83;;;0.70;;
23155;SDS011;11746;50.876;4.246;2023-08-21T14:30:03;1.52;;;0.50;;
23155;SDS011;11746;50.876;4.246;2023-08-21T14:32:29;2.13;;;0.80;;
23155;SDS011;11746;50.876;4.246;2023-08-21T14:34:55;2.15;;;0.90;;
23155;SDS011;11746;50.876;4.246;2023-08-21T14:37:21;1.63;;;0.63;;
23155;SDS011;11746;50.876;4.246;2023-08-21T14:39:48;1.15;;;0.50;;
23155;SDS011;11746;50.876;4.246;2023-08-21T14:42:14;1.00;;;0.60;;
23155;SDS011;11746;50.876;4.246;2023-08-21T14:44:40;2.03;;;0.70;;
23155;SDS011;11746;50.876;4.246;2023-08-21T14:47:08;1.30;;;0.80;;
23155;SDS011;11746;50.876;4.246;2023-08-21T14:49:34;2.72;;;0.60;;
23155;SDS011;11746;50.876;4.246;2023-08-21T14:51:59;166.98;;;19.13;;
23155;SDS011;11746;50.876;4.246;2023-08-21T14:54:25;1.83;;;0.70;;
23155;SDS011;11746;50.876;4.246;2023-08-21T14:56:53;2.17;;;0.93;;
23155;SDS011;11746;50.876;4.246;2023-08-21T14:59:21;1.23;;;0.52;;
23155;SDS011;11746;50.876;4.246;2023-08-21T15:01:49;4.10;;;0.90;;
23155;SDS011;11746;50.876;4.246;2023-08-21T15:04:14;1.88;;;0.70;;
23155;SDS011;11746;50.876;4.246;2023-08-21T15:06:40;5.63;;;0.63;;